createdAt,value
2022-11-02T00:02:45.364Z,28.67
2022-11-02T00:07:50.610Z,32.38
2022-11-02T00:12:54.578Z,39.47
2022-11-02T00:23:10.975Z,33.17
2022-11-02T00:28:15.220Z,34.85
2022-11-02T00:33:18.996Z,29.90
2022-11-02T00:38:24.248Z,29.10
2022-11-02T00:43:28.261Z,36.23
2022-11-02T00:48:32.075Z,29.58
2022-11-02T00:53:37.389Z,27.80
2022-11-02T00:58:41.171Z,30.15
2022-11-02T01:03:46.386Z,35.63
2022-11-02T01:08:51.584Z,29.05
2022-11-02T01:13:55.526Z,30.15
2022-11-02T01:18:59.496Z,31.48
2022-11-02T01:24:04.886Z,27.52
2022-11-02T01:29:09.008Z,28.85
2022-11-02T01:34:12.856Z,30.13
2022-11-02T01:39:18.015Z,30.80
2022-11-02T01:44:29.023Z,26.70
2022-11-02T01:49:34.278Z,32.45
2022-11-02T01:54:42.830Z,28.80
2022-11-02T01:59:51.008Z,31.50
2022-11-02T02:04:59.390Z,29.23
2022-11-02T02:10:05.625Z,32.67
2022-11-02T02:15:11.529Z,32.00
2022-11-02T02:20:26.097Z,34.27
2022-11-02T02:25:49.552Z,29.92
2022-11-02T02:30:58.302Z,30.98
2022-11-02T02:36:05.622Z,30.48
2022-11-02T02:41:14.064Z,35.78
2022-11-02T02:46:21.152Z,30.63
2022-11-02T02:51:28.855Z,31.92
2022-11-02T02:56:38.076Z,35.30
2022-11-02T03:01:46.406Z,38.20
2022-11-02T03:06:53.648Z,32.25
2022-11-02T03:12:04.213Z,34.10
2022-11-02T03:17:16.972Z,31.92
2022-11-02T03:22:31.788Z,35.42
2022-11-02T03:27:40.708Z,34.60
2022-11-02T03:32:51.204Z,30.77
2022-11-02T03:38:00.161Z,26.95
2022-11-02T03:43:05.541Z,33.03
2022-11-02T03:48:12.889Z,33.97
2022-11-02T03:53:22.447Z,27.75
2022-11-02T03:58:27.274Z,32.33
2022-11-02T04:03:34.603Z,28.45
2022-11-02T04:08:41.236Z,31.25
2022-11-02T04:14:04.687Z,32.67
2022-11-02T04:19:29.879Z,32.97
2022-11-02T04:24:51.265Z,31.05
2022-11-02T04:29:56.152Z,32.20
2022-11-02T04:35:01.650Z,30.35
2022-11-02T04:40:06.082Z,33.00
2022-11-02T04:45:10.869Z,34.10
2022-11-02T04:50:16.450Z,31.45
2022-11-02T04:55:20.901Z,35.75
2022-11-02T05:00:25.384Z,29.85
2022-11-02T05:05:31.826Z,30.58
2022-11-02T05:10:36.952Z,35.53
2022-11-02T05:15:42.430Z,31.30
2022-11-02T05:20:52.649Z,33.85
2022-11-02T05:25:59.382Z,32.17
2022-11-02T05:31:04.948Z,30.88
2022-11-02T05:41:20.066Z,34.88
2022-11-02T05:46:25.239Z,36.63
2022-11-02T05:51:30.420Z,32.92
2022-11-02T05:56:35.409Z,30.38
2022-11-02T06:01:39.278Z,30.73
2022-11-02T06:06:44.711Z,32.17
2022-11-02T06:11:48.513Z,33.93
2022-11-02T06:16:52.384Z,33.92
2022-11-02T06:21:58.000Z,32.80
2022-11-02T06:27:01.820Z,33.85
2022-11-02T06:32:06.188Z,30.40
2022-11-02T06:37:11.330Z,39.45
2022-11-02T06:42:15.120Z,31.15
2022-11-02T06:47:18.898Z,35.90
2022-11-02T06:52:24.107Z,29.27
2022-11-02T06:57:27.997Z,35.53
2022-11-02T07:02:32.079Z,36.58
2022-11-02T07:07:37.323Z,45.63
2022-11-02T07:12:41.097Z,35.70
2022-11-02T07:17:44.865Z,35.03
2022-11-02T07:22:54.957Z,34.47
2022-11-02T07:27:59.914Z,36.65
2022-11-02T07:33:03.961Z,37.17
2022-11-02T07:38:10.329Z,35.08
2022-11-02T07:43:14.119Z,33.47
2022-11-02T07:48:24.227Z,33.00
2022-11-02T07:53:29.549Z,33.83
2022-11-02T07:58:34.021Z,35.90
2022-11-02T08:03:37.859Z,27.30
2022-11-02T08:08:43.173Z,33.97
2022-11-02T08:13:46.941Z,33.55
2022-11-02T08:18:50.744Z,29.55
2022-11-02T08:23:58.663Z,25.02
2022-11-02T08:29:03.480Z,34.40
2022-11-02T08:34:07.266Z,28.25
2022-11-02T08:39:17.491Z,33.60
2022-11-02T08:44:22.585Z,33.75
2022-11-02T08:49:26.459Z,28.23
2022-11-02T08:54:31.659Z,32.40
2022-11-02T08:59:35.439Z,33.53
2022-11-02T09:04:39.217Z,33.15
2022-11-02T09:09:44.361Z,30.23
2022-11-02T09:14:48.125Z,36.80
2022-11-02T09:19:51.914Z,28.58
2022-11-02T09:24:57.085Z,32.92
2022-11-02T09:30:00.856Z,33.08
2022-11-02T09:35:08.320Z,29.85
2022-11-02T09:40:14.970Z,31.83
2022-11-02T09:45:19.361Z,25.30
2022-11-02T09:55:36.869Z,25.17
2022-11-02T10:00:42.508Z,27.27
2022-11-02T10:05:49.310Z,31.80
2022-11-02T10:11:08.627Z,26.65
2022-11-02T10:16:14.854Z,30.02
2022-11-02T10:21:21.916Z,30.45
2022-11-02T10:26:29.491Z,29.13
2022-11-02T10:31:35.196Z,27.17
2022-11-02T10:36:45.992Z,22.48
2022-11-02T10:42:04.679Z,24.05
2022-11-02T10:47:15.219Z,30.13
2022-11-02T10:52:19.749Z,23.58
2022-11-02T10:57:26.074Z,30.02
2022-11-02T11:02:29.937Z,32.85
2022-11-02T11:07:33.713Z,25.90
2022-11-02T11:12:42.326Z,23.27
2022-11-02T11:23:21.981Z,27.95
2022-11-02T11:28:29.381Z,30.75
2022-11-02T11:33:34.182Z,28.13
2022-11-02T11:38:38.205Z,25.88
2022-11-02T11:43:43.540Z,25.70
2022-11-02T11:48:50.658Z,28.45
2022-11-02T11:54:33.716Z,27.58
2022-11-02T11:59:48.867Z,27.10
2022-11-02T12:04:53.116Z,27.33
2022-11-02T12:15:16.380Z,23.02
2022-11-02T12:20:41.835Z,27.83
2022-11-02T12:25:51.409Z,32.90
2022-11-02T12:31:03.272Z,25.42
2022-11-02T12:36:16.271Z,29.38
2022-11-02T12:41:26.897Z,33.85
2022-11-02T12:46:39.731Z,33.75
2022-11-02T12:51:51.618Z,34.58
2022-11-02T12:56:56.005Z,41.05
2022-11-02T13:07:17.226Z,32.83
2022-11-02T13:12:23.105Z,31.60
2022-11-02T13:17:35.570Z,32.65
2022-11-02T13:22:41.949Z,37.95
2022-11-02T13:27:51.410Z,36.03
2022-11-02T13:33:00.114Z,25.65
2022-11-02T13:38:06.895Z,28.50
2022-11-02T13:43:37.608Z,34.72
2022-11-02T13:48:56.940Z,33.33
2022-11-02T13:54:03.413Z,34.80
2022-11-02T13:59:08.714Z,32.08
2022-11-02T14:09:28.913Z,31.92
2022-11-02T14:14:32.680Z,44.38
2022-11-02T14:19:53.243Z,38.58
2022-11-02T14:25:16.508Z,43.03
2022-11-02T14:30:45.168Z,39.60
2022-11-02T14:35:58.040Z,44.17
2022-11-02T14:41:11.477Z,42.20
2022-11-02T14:46:23.361Z,36.33
2022-11-02T14:51:31.767Z,35.92
2022-11-02T14:56:50.292Z,36.45
2022-11-02T15:01:57.416Z,32.05
2022-11-02T15:07:03.878Z,37.40
2022-11-02T15:12:27.398Z,44.42
2022-11-02T15:17:59.945Z,37.95
2022-11-02T15:23:26.668Z,48.47
2022-11-02T15:28:34.776Z,49.08
2022-11-02T15:33:40.718Z,61.15
2022-11-02T15:38:48.584Z,72.70
2022-11-02T15:44:16.871Z,56.50
2022-11-02T15:49:36.192Z,56.65
2022-11-02T15:54:58.599Z,58.22
2022-11-02T16:00:15.578Z,40.35
2022-11-02T16:05:24.689Z,49.25
2022-11-02T16:10:31.191Z,43.42
2022-11-02T16:15:35.076Z,34.95
2022-11-02T16:20:40.048Z,41.95
2022-11-02T16:25:47.887Z,42.07
2022-11-02T16:31:05.443Z,48.58
2022-11-02T16:36:17.132Z,64.00
2022-11-02T16:41:22.453Z,43.05
2022-11-02T16:46:32.028Z,40.93
2022-11-02T16:51:35.874Z,39.20
2022-11-02T16:56:41.136Z,37.78
2022-11-02T17:01:45.537Z,46.20
2022-11-02T17:06:50.999Z,43.72
2022-11-02T17:11:57.574Z,61.73
2022-11-02T17:17:04.387Z,53.95
2022-11-02T17:22:13.137Z,57.00
2022-11-02T17:27:26.134Z,61.30
2022-11-02T17:32:30.175Z,66.05
2022-11-02T17:37:33.941Z,43.88
2022-11-02T17:42:56.560Z,36.63
2022-11-02T17:48:01.354Z,33.83
2022-11-02T17:53:06.176Z,36.38
2022-11-02T17:58:13.766Z,31.50
2022-11-02T18:03:21.696Z,31.10
2022-11-02T18:08:28.161Z,48.70
2022-11-02T18:13:33.321Z,47.70
2022-11-02T18:18:37.203Z,54.17
2022-11-02T18:23:41.866Z,52.67
2022-11-02T18:28:47.075Z,54.97
2022-11-02T18:33:52.893Z,55.00
2022-11-02T18:38:56.718Z,50.45
2022-11-02T18:44:08.895Z,53.97
2022-11-02T18:49:15.738Z,47.70
2022-11-02T18:54:19.512Z,47.40
2022-11-02T18:59:24.702Z,44.38
2022-11-02T19:04:28.483Z,44.83
2022-11-02T19:09:33.594Z,44.60
2022-11-02T19:14:40.233Z,46.38
2022-11-02T19:19:45.524Z,47.97
2022-11-02T19:24:49.492Z,60.23
2022-11-02T19:29:54.665Z,45.30
2022-11-02T19:34:58.436Z,55.03
2022-11-02T19:40:02.507Z,51.72
2022-11-02T19:45:08.506Z,51.05
2022-11-02T19:50:12.672Z,49.30
2022-11-02T19:55:17.382Z,47.92
2022-11-02T20:00:22.664Z,48.00
2022-11-02T20:05:26.444Z,55.67
2022-11-02T20:10:30.317Z,40.38
2022-11-02T20:15:39.586Z,42.58
2022-11-02T20:20:44.648Z,44.08
2022-11-02T20:25:48.599Z,37.13
2022-11-02T20:30:54.536Z,46.75
2022-11-02T20:35:58.301Z,39.05
2022-11-02T20:41:07.133Z,44.05
2022-11-02T20:51:39.521Z,51.47
2022-11-02T20:56:43.659Z,40.75
2022-11-02T21:01:48.928Z,43.17
2022-11-02T21:06:52.951Z,43.07
2022-11-02T21:12:14.378Z,44.85
2022-11-02T21:17:19.649Z,33.80
2022-11-02T21:22:23.429Z,34.37
2022-11-02T21:27:27.380Z,35.97
2022-11-02T21:32:32.588Z,29.15
2022-11-02T21:37:36.419Z,32.05
2022-11-02T21:42:40.936Z,27.45
2022-11-02T21:47:46.134Z,30.90
2022-11-02T21:52:49.921Z,26.52
2022-11-02T21:57:53.702Z,32.83
2022-11-02T22:02:58.860Z,32.08
2022-11-02T22:08:20.125Z,27.48
2022-11-02T22:13:36.307Z,28.40
2022-11-02T22:18:41.757Z,21.98
2022-11-02T22:23:46.061Z,21.97
2022-11-02T22:28:50.463Z,24.40
2022-11-02T22:33:57.799Z,19.98
2022-11-02T22:39:02.715Z,27.08
2022-11-02T22:44:08.309Z,24.67
2022-11-02T22:49:14.404Z,23.10
2022-11-02T22:59:21.975Z,25.67
2022-11-02T23:04:27.153Z,28.58
2022-11-02T23:09:30.934Z,30.15
2022-11-02T23:14:34.718Z,22.08
2022-11-02T23:19:39.877Z,19.90
2022-11-02T23:25:02.206Z,21.17
2022-11-02T23:30:24.075Z,25.67
2022-11-02T23:35:46.813Z,18.50
2022-11-02T23:40:54.804Z,21.58
2022-11-02T23:45:59.025Z,22.85
2022-11-02T23:51:21.776Z,18.05
2022-11-02T23:56:43.161Z,22.20
